createdAt,value
2022-10-28T00:01:22.715Z,101997.31
2022-10-28T00:03:53.569Z,101991.53
2022-10-28T00:06:23.935Z,101987.62
2022-10-28T00:08:52.180Z,101984.53
2022-10-28T00:11:22.990Z,101982.00
2022-10-28T00:13:54.080Z,101988.88
2022-10-28T00:16:24.607Z,101987.72
2022-10-28T00:18:54.088Z,101988.72
2022-10-28T00:21:25.277Z,101995.78
2022-10-28T00:23:52.976Z,101997.28
2022-10-28T00:26:23.408Z,102001.31
2022-10-28T00:28:56.719Z,101994.03
2022-10-28T00:31:26.227Z,101998.59
2022-10-28T00:33:54.380Z,102000.00
2022-10-28T00:36:24.277Z,101996.19
2022-10-28T00:38:54.049Z,102001.31
2022-10-28T00:41:30.773Z,101994.22
2022-10-28T00:44:01.820Z,101991.38
2022-10-28T00:46:46.604Z,101998.56
2022-10-28T00:49:21.342Z,101991.22
2022-10-28T00:51:53.719Z,101990.03
2022-10-28T00:54:22.740Z,101989.16
2022-10-28T00:56:56.053Z,101981.53
2022-10-28T00:59:35.114Z,101984.88
2022-10-28T01:02:05.282Z,101981.69
2022-10-28T01:04:33.079Z,101980.06
2022-10-28T01:07:02.449Z,101976.09
2022-10-28T01:09:30.274Z,101974.41
2022-10-28T01:12:20.423Z,101979.97
2022-10-28T01:15:16.215Z,101977.72
2022-10-28T01:18:19.601Z,101974.88
2022-10-28T01:20:56.527Z,101977.97
2022-10-28T01:23:49.958Z,101979.19
2022-10-28T01:26:20.531Z,101980.59
2022-10-28T01:29:06.524Z,101982.72
2022-10-28T01:32:25.527Z,101987.59
2022-10-28T01:34:58.794Z,101982.34
2022-10-28T01:37:47.647Z,101986.66
2022-10-28T01:40:39.202Z,101981.63
2022-10-28T01:43:22.193Z,101979.25
2022-10-28T01:45:59.141Z,101976.25
2022-10-28T01:48:45.413Z,101983.72
2022-10-28T01:51:30.483Z,101976.69
2022-10-28T01:54:02.505Z,101977.69
2022-10-28T01:56:40.353Z,101977.03
2022-10-28T01:59:13.364Z,101973.97
2022-10-28T02:01:41.479Z,101980.44
2022-10-28T02:04:09.532Z,101977.16
2022-10-28T02:06:38.936Z,101978.84
2022-10-28T02:09:19.853Z,101976.47
2022-10-28T02:11:47.723Z,101966.78
2022-10-28T02:14:27.263Z,101970.66
2022-10-28T02:17:02.390Z,101965.66
2022-10-28T02:19:39.646Z,101966.38
2022-10-28T02:22:38.337Z,101968.41
2022-10-28T02:25:20.536Z,101964.06
2022-10-28T02:28:05.778Z,101962.37
2022-10-28T02:30:44.438Z,101965.34
2022-10-28T02:33:18.436Z,101962.84
2022-10-28T02:35:57.674Z,101966.69
2022-10-28T02:38:34.419Z,101975.22
2022-10-28T02:41:30.169Z,101973.97
2022-10-28T02:44:04.283Z,101969.75
2022-10-28T02:46:35.669Z,101970.19
2022-10-28T02:49:07.796Z,101965.31
2022-10-28T02:51:40.052Z,101967.03
2022-10-28T02:54:12.332Z,101966.47
2022-10-28T02:56:47.054Z,101967.06
2022-10-28T02:59:15.033Z,101966.47
2022-10-28T03:01:42.654Z,101974.41
2022-10-28T03:04:10.650Z,101971.34
2022-10-28T03:06:38.509Z,101975.34
2022-10-28T03:09:06.251Z,101970.44
2022-10-28T03:11:34.153Z,101979.53
2022-10-28T03:14:02.141Z,101983.72
2022-10-28T03:16:29.696Z,101987.28
2022-10-28T03:18:57.332Z,101983.59
2022-10-28T03:21:25.295Z,101990.19
2022-10-28T03:23:52.914Z,101982.50
2022-10-28T03:26:20.500Z,101983.28
2022-10-28T03:28:48.344Z,101986.00
2022-10-28T03:31:16.977Z,101990.19
2022-10-28T03:33:44.486Z,101991.69
2022-10-28T03:36:12.365Z,101994.75
2022-10-28T03:38:39.843Z,101997.34
2022-10-28T03:41:07.374Z,101999.19
2022-10-28T03:43:35.188Z,101999.75
2022-10-28T03:46:02.739Z,102002.94
2022-10-28T03:48:30.281Z,102010.94
2022-10-28T03:50:58.100Z,102005.53
2022-10-28T03:53:27.701Z,102005.72
2022-10-28T03:56:00.415Z,102001.19
2022-10-28T03:58:28.303Z,102007.44
2022-10-28T04:00:56.924Z,102001.56
2022-10-28T04:03:25.917Z,102003.28
2022-10-28T04:05:53.825Z,102005.94
2022-10-28T04:08:21.912Z,102001.50
2022-10-28T04:10:49.771Z,102011.09
2022-10-28T04:13:17.893Z,102012.22
2022-10-28T04:15:45.441Z,102006.28
2022-10-28T04:18:13.460Z,101997.72
2022-10-28T04:20:41.119Z,101998.06
2022-10-28T04:23:11.193Z,101998.38
2022-10-28T04:25:38.973Z,101992.13
2022-10-28T04:28:06.577Z,101992.47
2022-10-28T04:30:34.247Z,101999.41
2022-10-28T04:33:02.150Z,101996.56
2022-10-28T04:35:29.684Z,101992.81
2022-10-28T04:37:57.260Z,101997.50
2022-10-28T04:40:25.587Z,101997.28
2022-10-28T04:42:53.442Z,101995.00
2022-10-28T04:45:21.161Z,101988.06
2022-10-28T04:47:48.942Z,101986.91
2022-10-28T04:50:16.527Z,101984.75
2022-10-28T04:52:44.271Z,101985.91
2022-10-28T04:55:12.131Z,101984.28
2022-10-28T04:57:39.798Z,101989.41
2022-10-28T05:00:07.870Z,101987.25
2022-10-28T05:02:35.750Z,101988.63
2022-10-28T05:05:04.665Z,101989.87
2022-10-28T05:07:32.237Z,101985.69
2022-10-28T05:10:00.049Z,101998.75
2022-10-28T05:12:27.547Z,101993.50
2022-10-28T05:14:55.039Z,101998.19
2022-10-28T05:17:23.101Z,101994.84
2022-10-28T05:19:50.721Z,101996.22
2022-10-28T05:22:18.383Z,102006.69
2022-10-28T05:24:46.244Z,102001.06
2022-10-28T05:27:13.726Z,102005.91
2022-10-28T05:29:41.272Z,101998.19
2022-10-28T05:32:09.120Z,101997.47
2022-10-28T05:34:36.740Z,101998.00
2022-10-28T05:37:04.274Z,102002.44
2022-10-28T05:39:32.285Z,101999.75
2022-10-28T05:41:59.825Z,102000.28
2022-10-28T05:44:27.327Z,101993.94
2022-10-28T05:46:55.791Z,101989.41
2022-10-28T05:49:23.397Z,101994.19
2022-10-28T05:51:50.904Z,101990.66
2022-10-28T05:54:18.931Z,101991.44
2022-10-28T05:56:46.531Z,101990.53
2022-10-28T05:59:14.170Z,101989.19
2022-10-28T06:01:42.032Z,101984.44
2022-10-28T06:04:10.006Z,101982.81
2022-10-28T06:06:37.626Z,101989.72
2022-10-28T06:09:05.164Z,101994.50
2022-10-28T06:11:33.240Z,101993.03
2022-10-28T06:14:00.837Z,101996.81
2022-10-28T06:16:28.419Z,101989.19
2022-10-28T06:18:56.939Z,101988.06
2022-10-28T06:21:24.527Z,101993.81
2022-10-28T06:23:52.142Z,101994.28
2022-10-28T06:26:19.964Z,102001.12
2022-10-28T06:28:47.498Z,102006.41
2022-10-28T06:31:15.129Z,102003.69
2022-10-28T06:33:42.961Z,101998.28
2022-10-28T06:36:10.546Z,101991.47
2022-10-28T06:38:41.021Z,101989.19
2022-10-28T06:41:08.894Z,101996.78
2022-10-28T06:43:36.389Z,101992.72
2022-10-28T06:46:04.353Z,101995.78
2022-10-28T06:48:33.804Z,101994.84
2022-10-28T06:51:01.398Z,102002.91
2022-10-28T06:53:29.002Z,102001.47
2022-10-28T06:55:58.347Z,102004.88
2022-10-28T06:58:26.338Z,102004.53
2022-10-28T07:00:54.735Z,102013.81
2022-10-28T07:03:22.758Z,102017.72
2022-10-28T07:05:51.615Z,102018.72
2022-10-28T07:08:19.650Z,102014.19
2022-10-28T07:10:58.242Z,102020.44
2022-10-28T07:13:26.763Z,102013.41
2022-10-28T07:15:59.676Z,102025.31
2022-10-28T07:18:29.754Z,102022.81
2022-10-28T07:21:02.034Z,102020.41
2022-10-28T07:23:32.530Z,102022.69
2022-10-28T07:26:01.113Z,102018.59
2022-10-28T07:28:29.008Z,102029.41
2022-10-28T07:31:04.226Z,102036.44
2022-10-28T07:33:32.146Z,102031.97
2022-10-28T07:36:02.546Z,102040.13
2022-10-28T07:38:30.071Z,102040.75
2022-10-28T07:40:58.260Z,102034.78
2022-10-28T07:43:25.752Z,102033.75
2022-10-28T07:45:57.285Z,102030.84
2022-10-28T07:48:25.385Z,102036.38
2022-10-28T07:50:52.907Z,102038.00
2022-10-28T07:53:22.620Z,102035.34
2022-10-28T07:56:01.585Z,102041.59
2022-10-28T07:58:30.066Z,102041.13
2022-10-28T08:01:06.227Z,102037.47
2022-10-28T08:03:38.743Z,102033.19
2022-10-28T08:06:10.268Z,102033.69
2022-10-28T08:08:39.613Z,102034.16
2022-10-28T08:11:11.460Z,102037.47
2022-10-28T08:13:40.277Z,102040.28
2022-10-28T08:16:08.838Z,102032.50
2022-10-28T08:18:36.907Z,102046.75
2022-10-28T08:21:06.743Z,102045.97
2022-10-28T08:23:34.718Z,102041.00
2022-10-28T08:26:02.548Z,102047.66
2022-10-28T08:28:30.612Z,102043.50
2022-10-28T08:31:09.794Z,102045.44
2022-10-28T08:33:47.002Z,102047.66
2022-10-28T08:36:16.636Z,102047.09
2022-10-28T08:38:46.163Z,102049.94
2022-10-28T08:41:36.117Z,102037.25
2022-10-28T08:44:25.674Z,102037.63
2022-10-28T08:47:20.839Z,102046.81
2022-10-28T08:49:54.807Z,102043.91
2022-10-28T08:52:39.270Z,102046.63
2022-10-28T08:55:14.499Z,102048.69
2022-10-28T08:57:53.958Z,102051.28
2022-10-28T09:00:24.193Z,102055.28
2022-10-28T09:03:00.461Z,102048.47
2022-10-28T09:05:28.922Z,102053.72
2022-10-28T09:07:58.369Z,102050.87
2022-10-28T09:11:06.341Z,102055.03
2022-10-28T09:13:40.210Z,102052.84
2022-10-28T09:16:40.538Z,102044.25
2022-10-28T09:19:39.175Z,102042.75
2022-10-28T09:22:52.366Z,102035.12
2022-10-28T09:25:38.732Z,102033.09
2022-10-28T09:28:26.241Z,102038.38
2022-10-28T09:31:08.676Z,102032.19
2022-10-28T09:34:05.334Z,102034.09
2022-10-28T09:36:37.889Z,102035.69
2022-10-28T09:39:11.161Z,102029.34
2022-10-28T09:41:41.997Z,102035.53
2022-10-28T09:44:18.544Z,102022.66
2022-10-28T09:46:51.181Z,102032.97
2022-10-28T09:49:25.070Z,102030.41
2022-10-28T09:51:55.930Z,102027.25
2022-10-28T09:54:36.218Z,102025.31
2022-10-28T09:57:05.080Z,102027.16
2022-10-28T09:59:34.173Z,102036.22
2022-10-28T10:02:03.903Z,102029.06
2022-10-28T10:04:32.039Z,102025.63
2022-10-28T10:07:11.225Z,102023.00
2022-10-28T10:09:39.587Z,102023.37
2022-10-28T10:12:12.121Z,102021.28
2022-10-28T10:14:45.890Z,102017.88
2022-10-28T10:17:39.431Z,102014.72
2022-10-28T10:20:10.308Z,102018.03
2022-10-28T10:22:43.254Z,102017.50
2022-10-28T10:25:20.197Z,102023.03
2022-10-28T10:28:04.061Z,102022.84
2022-10-28T10:30:59.983Z,102027.44
2022-10-28T10:33:36.038Z,102027.50
2022-10-28T10:36:14.332Z,102034.34
2022-10-28T10:38:54.391Z,102025.38
2022-10-28T10:41:37.260Z,102016.41
2022-10-28T10:44:23.084Z,102016.03
2022-10-28T10:47:04.982Z,102014.06
2022-10-28T10:49:37.332Z,102018.41
2022-10-28T10:52:09.711Z,102017.91
2022-10-28T10:54:38.142Z,102010.22
2022-10-28T10:57:16.322Z,102000.03
2022-10-28T10:59:49.733Z,101999.25
2022-10-28T11:02:27.987Z,102005.38
2022-10-28T11:04:59.774Z,102001.09
2022-10-28T11:07:28.934Z,101996.72
2022-10-28T11:09:56.800Z,101998.22
2022-10-28T11:12:32.325Z,102002.25
2022-10-28T11:15:03.140Z,101994.12
2022-10-28T11:17:35.078Z,101997.25
2022-10-28T11:20:50.495Z,102008.41
2022-10-28T11:23:40.722Z,102001.31
2022-10-28T11:26:13.123Z,101998.66
2022-10-28T11:29:00.983Z,102006.66
2022-10-28T11:31:56.057Z,102006.22
2022-10-28T11:34:24.171Z,101999.75
2022-10-28T11:37:09.769Z,102003.56
2022-10-28T11:39:45.999Z,101992.06
2022-10-28T11:42:25.965Z,101991.44
2022-10-28T11:44:56.758Z,101988.59
2022-10-28T11:47:30.432Z,101988.59
2022-10-28T11:50:22.781Z,101996.00
2022-10-28T11:53:24.523Z,101989.66
2022-10-28T11:56:00.710Z,101989.22
2022-10-28T11:58:52.123Z,101984.41
2022-10-28T12:01:39.949Z,101984.00
2022-10-28T12:04:25.960Z,101977.09
2022-10-28T12:07:12.463Z,101965.25
2022-10-28T12:10:15.797Z,101963.69
2022-10-28T12:12:51.232Z,101954.94
2022-10-28T12:15:54.905Z,101943.38
2022-10-28T12:18:25.640Z,101951.28
2022-10-28T12:21:07.520Z,101944.59
2022-10-28T12:23:39.144Z,101947.28
2022-10-28T12:26:11.076Z,101948.03
2022-10-28T12:28:47.020Z,101948.09
2022-10-28T12:31:28.874Z,101952.56
2022-10-28T12:34:01.137Z,101948.53
2022-10-28T12:36:46.551Z,101953.59
2022-10-28T12:39:28.029Z,101943.31
2022-10-28T12:41:59.704Z,101953.31
2022-10-28T12:44:29.497Z,101949.63
2022-10-28T12:47:19.176Z,101944.03
2022-10-28T12:50:08.380Z,101938.00
2022-10-28T12:52:49.382Z,101937.16
2022-10-28T12:55:32.293Z,101944.25
2022-10-28T12:58:26.091Z,101940.22
2022-10-28T13:01:02.973Z,101935.19
2022-10-28T13:03:31.027Z,101928.56
2022-10-28T13:06:29.666Z,101922.03
2022-10-28T13:09:25.721Z,101914.00
2022-10-28T13:11:58.812Z,101915.88
2022-10-28T13:14:43.230Z,101916.12
2022-10-28T13:17:48.055Z,101921.25
2022-10-28T13:20:37.261Z,101915.88
2022-10-28T13:23:10.613Z,101911.53
2022-10-28T13:25:50.416Z,101913.97
2022-10-28T13:28:21.649Z,101906.66
2022-10-28T13:30:54.264Z,101906.44
2022-10-28T13:33:27.496Z,101906.69
2022-10-28T13:36:08.208Z,101903.06
2022-10-28T13:38:36.623Z,101908.88
2022-10-28T13:41:04.526Z,101910.22
2022-10-28T13:43:50.665Z,101907.87
2022-10-28T13:46:56.493Z,101912.09
2022-10-28T13:49:35.667Z,101915.00
2022-10-28T13:52:13.342Z,101921.84
2022-10-28T13:54:44.003Z,101916.56
2022-10-28T13:57:38.054Z,101909.97
2022-10-28T14:00:17.756Z,101913.75
2022-10-28T14:02:58.757Z,101903.69
2022-10-28T14:05:47.097Z,101905.31
2022-10-28T14:08:24.443Z,101906.03
2022-10-28T14:11:07.914Z,101909.56
2022-10-28T14:13:39.735Z,101914.63
2022-10-28T14:16:14.588Z,101906.22
2022-10-28T14:18:54.376Z,101910.69
2022-10-28T14:21:23.400Z,101908.06
2022-10-28T14:24:08.975Z,101907.53
2022-10-28T14:27:18.201Z,101906.25
2022-10-28T14:29:55.266Z,101896.22
2022-10-28T14:32:31.744Z,101887.56
2022-10-28T14:35:04.480Z,101883.63
2022-10-28T14:37:58.206Z,101890.19
2022-10-28T14:40:37.967Z,101885.97
2022-10-28T14:43:33.421Z,101882.78
2022-10-28T14:46:09.776Z,101888.34
2022-10-28T14:48:46.071Z,101892.03
2022-10-28T14:51:18.274Z,101891.53
2022-10-28T14:53:47.463Z,101890.69
2022-10-28T14:58:59.780Z,101888.63
2022-10-28T15:01:49.850Z,101894.16
2022-10-28T15:04:18.311Z,101889.94
2022-10-28T15:06:48.172Z,101882.56
2022-10-28T15:09:30.580Z,101877.56
2022-10-28T15:12:05.864Z,101876.50
2022-10-28T15:14:40.506Z,101867.81
2022-10-28T15:17:17.395Z,101874.69
2022-10-28T15:19:47.642Z,101877.84
2022-10-28T15:22:33.300Z,101878.88
2022-10-28T15:25:04.550Z,101877.56
2022-10-28T15:27:36.083Z,101880.97
2022-10-28T15:30:25.352Z,101882.84
2022-10-28T15:32:55.033Z,101874.13
2022-10-28T15:35:28.248Z,101879.94
2022-10-28T15:38:00.120Z,101887.03
2022-10-28T15:40:35.436Z,101885.97
2022-10-28T15:43:17.392Z,101893.06
2022-10-28T15:45:46.050Z,101898.59
2022-10-28T15:48:23.490Z,101889.38
2022-10-28T15:51:12.950Z,101885.97
2022-10-28T15:53:42.970Z,101891.75
2022-10-28T15:56:18.508Z,101891.75
2022-10-28T15:58:50.373Z,101887.28
2022-10-28T16:01:58.634Z,101893.31
2022-10-28T16:04:26.639Z,101882.81
2022-10-28T16:06:57.217Z,101890.69
2022-10-28T16:09:34.647Z,101889.38
2022-10-28T16:12:12.720Z,101884.41
2022-10-28T16:14:42.026Z,101884.66
2022-10-28T16:17:18.967Z,101880.16
2022-10-28T16:19:53.388Z,101878.59
2022-10-28T16:22:23.187Z,101880.69
2022-10-28T16:24:53.215Z,101879.09
2022-10-28T16:27:27.435Z,101882.47
2022-10-28T16:29:56.040Z,101882.75
2022-10-28T16:32:30.817Z,101880.94
2022-10-28T16:35:00.381Z,101885.13
2022-10-28T16:37:30.967Z,101885.19
2022-10-28T16:39:58.954Z,101880.94
2022-10-28T16:42:27.273Z,101881.19
2022-10-28T16:44:55.258Z,101888.03
2022-10-28T16:47:29.123Z,101882.28
2022-10-28T16:49:57.796Z,101881.19
2022-10-28T16:52:28.716Z,101879.91
2022-10-28T16:54:57.145Z,101882.00
2022-10-28T16:57:25.859Z,101881.22
2022-10-28T16:59:54.122Z,101885.47
2022-10-28T17:02:33.158Z,101892.78
2022-10-28T17:05:04.967Z,101891.19
2022-10-28T17:07:32.737Z,101881.44
2022-10-28T17:10:00.486Z,101890.66
2022-10-28T17:12:28.584Z,101892.25
2022-10-28T17:14:56.323Z,101900.38
2022-10-28T17:17:27.058Z,101892.00
2022-10-28T17:19:57.471Z,101895.38
2022-10-28T17:22:25.839Z,101894.06
2022-10-28T17:24:54.579Z,101896.94
2022-10-28T17:27:22.547Z,101888.03
2022-10-28T17:29:50.209Z,101891.72
2022-10-28T17:32:17.877Z,101890.38
2022-10-28T17:34:45.822Z,101888.78
2022-10-28T17:37:13.483Z,101891.13
2022-10-28T17:39:42.407Z,101895.84
2022-10-28T17:42:10.581Z,101902.97
2022-10-28T17:44:38.494Z,101900.59
2022-10-28T17:47:06.206Z,101897.44
2022-10-28T17:49:36.478Z,101904.81
2022-10-28T17:52:04.100Z,101902.69
2022-10-28T17:54:31.794Z,101901.66
2022-10-28T17:56:59.803Z,101897.22
2022-10-28T17:59:27.308Z,101896.09
2022-10-28T18:01:55.111Z,101894.47
2022-10-28T18:04:30.309Z,101893.25
2022-10-28T18:06:58.282Z,101887.72
2022-10-28T18:09:28.294Z,101895.75
2022-10-28T18:11:56.159Z,101893.50
2022-10-28T18:14:23.947Z,101892.94
2022-10-28T18:16:51.913Z,101895.34
2022-10-28T18:19:20.803Z,101895.34
2022-10-28T18:21:48.748Z,101892.09
2022-10-28T18:24:18.524Z,101894.78
2022-10-28T18:26:47.306Z,101892.62
2022-10-28T18:29:15.149Z,101894.44
2022-10-28T18:31:44.397Z,101887.59
2022-10-28T18:34:12.371Z,101890.03
2022-10-28T18:36:39.927Z,101879.47
2022-10-28T18:39:08.251Z,101877.03
2022-10-28T18:41:42.886Z,101872.88
2022-10-28T18:44:14.103Z,101888.38
2022-10-28T18:46:42.223Z,101880.50
2022-10-28T18:49:09.977Z,101889.94
2022-10-28T18:51:38.146Z,101885.22
2022-10-28T18:54:05.866Z,101891.44
2022-10-28T18:56:34.407Z,101888.13
2022-10-28T18:59:04.644Z,101894.06
2022-10-28T19:01:33.533Z,101898.47
2022-10-28T19:04:04.222Z,101896.66
2022-10-28T19:06:33.541Z,101891.97
2022-10-28T19:09:04.062Z,101888.88
2022-10-28T19:11:33.228Z,101888.78
2022-10-28T19:14:03.372Z,101895.66
2022-10-28T19:16:33.575Z,101891.44
2022-10-28T19:19:04.394Z,101891.00
2022-10-28T19:21:32.821Z,101898.34
2022-10-28T19:24:00.734Z,101907.34
2022-10-28T19:26:30.328Z,101909.34
2022-10-28T19:28:58.267Z,101914.56
2022-10-28T19:31:27.022Z,101911.97
2022-10-28T19:33:55.551Z,101909.81
2022-10-28T19:36:28.145Z,101905.31
2022-10-28T19:38:57.230Z,101910.31
2022-10-28T19:41:30.073Z,101909.34
2022-10-28T19:44:00.717Z,101904.59
2022-10-28T19:46:30.625Z,101908.28
2022-10-28T19:49:00.180Z,101911.69
2022-10-28T19:51:30.343Z,101905.94
2022-10-28T19:54:04.829Z,101911.37
2022-10-28T19:56:34.632Z,101911.59
2022-10-28T19:59:04.338Z,101915.56
2022-10-28T20:01:38.052Z,101920.28
2022-10-28T20:04:06.826Z,101917.66
2022-10-28T20:06:37.550Z,101919.25
2022-10-28T20:09:05.450Z,101920.59
2022-10-28T20:11:37.531Z,101925.75
2022-10-28T20:14:11.643Z,101917.19
2022-10-28T20:16:42.658Z,101921.37
2022-10-28T20:19:10.928Z,101917.63
2022-10-28T20:21:39.102Z,101914.81
2022-10-28T20:24:07.855Z,101919.81
2022-10-28T20:26:37.153Z,101919.31
2022-10-28T20:29:06.918Z,101922.94
2022-10-28T20:31:35.729Z,101923.44
2022-10-28T20:34:04.325Z,101933.91
2022-10-28T20:36:37.269Z,101927.84
2022-10-28T20:39:17.006Z,101929.22
2022-10-28T20:41:46.393Z,101937.31
2022-10-28T20:44:14.716Z,101937.47
2022-10-28T20:46:42.555Z,101933.88
2022-10-28T20:49:10.646Z,101932.41
2022-10-28T20:51:38.674Z,101930.12
2022-10-28T20:54:06.789Z,101924.53
2022-10-28T20:56:37.181Z,101924.31
2022-10-28T20:59:05.865Z,101919.75
2022-10-28T21:01:36.140Z,101920.19
2022-10-28T21:04:10.137Z,101918.63
2022-10-28T21:06:39.055Z,101918.34
2022-10-28T21:09:08.827Z,101908.69
2022-10-28T21:11:36.426Z,101912.34
2022-10-28T21:14:04.280Z,101906.88
2022-10-28T21:16:32.243Z,101917.03
2022-10-28T21:19:00.139Z,101910.94
2022-10-28T21:21:28.846Z,101916.50
2022-10-28T21:23:56.484Z,101918.63
2022-10-28T21:26:24.166Z,101913.88
2022-10-28T21:28:53.223Z,101917.53
2022-10-28T21:31:21.649Z,101907.66
2022-10-28T21:36:22.844Z,101915.91
2022-10-28T21:38:55.445Z,101910.72
2022-10-28T21:41:24.517Z,101904.25
2022-10-28T21:43:53.666Z,101904.81
2022-10-28T21:46:24.807Z,101903.91
2022-10-28T21:48:53.565Z,101905.66
2022-10-28T21:51:21.178Z,101907.78
2022-10-28T21:53:48.655Z,101916.84
2022-10-28T21:56:19.316Z,101906.94
2022-10-28T21:58:49.383Z,101915.53
2022-10-28T22:01:23.377Z,101919.28
2022-10-28T22:03:52.290Z,101921.97
2022-10-28T22:06:28.859Z,101918.81
2022-10-28T22:08:59.402Z,101913.06
2022-10-28T22:11:27.234Z,101911.63
2022-10-28T22:14:00.040Z,101911.56
2022-10-28T22:16:29.682Z,101905.88
2022-10-28T22:18:59.198Z,101907.87
2022-10-28T22:21:29.962Z,101894.06
2022-10-28T22:23:57.920Z,101891.13
2022-10-28T22:26:28.629Z,101894.59
2022-10-28T22:28:57.052Z,101890.13
2022-10-28T22:31:28.214Z,101893.00
2022-10-28T22:33:57.057Z,101890.84
2022-10-28T22:36:27.136Z,101893.81
2022-10-28T22:38:55.291Z,101895.31
2022-10-28T22:41:24.302Z,101900.12
2022-10-28T22:43:55.341Z,101899.28
2022-10-28T22:46:26.181Z,101896.69
2022-10-28T22:48:54.078Z,101902.16
2022-10-28T22:51:22.477Z,101893.94
2022-10-28T22:53:50.471Z,101884.87
2022-10-28T22:56:21.235Z,101887.47
2022-10-28T22:58:53.852Z,101887.25
2022-10-28T23:01:22.990Z,101893.53
2022-10-28T23:03:54.830Z,101890.03
2022-10-28T23:06:25.912Z,101885.09
2022-10-28T23:08:54.653Z,101884.72
2022-10-28T23:11:23.777Z,101886.66
2022-10-28T23:13:53.036Z,101884.78
2022-10-28T23:16:21.881Z,101879.09
2022-10-28T23:18:52.891Z,101880.53
2022-10-28T23:21:25.740Z,101877.19
2022-10-28T23:24:00.586Z,101871.56
2022-10-28T23:26:29.615Z,101884.72
2022-10-28T23:28:59.890Z,101879.75
2022-10-28T23:31:28.392Z,101874.84
2022-10-28T23:33:56.295Z,101875.41
2022-10-28T23:36:24.164Z,101874.34
2022-10-28T23:38:52.574Z,101874.22
2022-10-28T23:41:21.067Z,101877.13
2022-10-28T23:43:49.558Z,101876.03
2022-10-28T23:46:18.134Z,101865.69
2022-10-28T23:48:45.963Z,101871.72
2022-10-28T23:51:14.246Z,101872.75
2022-10-28T23:53:41.807Z,101874.34
2022-10-28T23:56:09.407Z,101879.12
2022-10-28T23:58:38.044Z,101877.84
